Arlington Heights, Massachusetts
Current Conditions -  °F | °C
As of 10:56 AM on Friday 21 Nov 2014 (Local Time) from KBED Reporting Station
Clear Clear  
Wind Chill: 20°   Ceiling: Unl
Heat Index: 32°   Visibility: 10mi
Dew Point:   Wind: 20mph
Humidity: 38%   Direction: 290°WNW
Pressure: 30.1"   Gusts: 31mph
Location:  42.42°N, 71.17°W
Report Text: KBED 211556Z 29017G27KT 10SM CLR 00/M13 A3010 RMK AO2 PK WND 27029/1508 SLP209 T00001128
Loading
Personal Weather Stations






























Interactive Weather Map New forecast layout! Learn more

10-Day Weather Forecast

Advertisements
Track Severe Weather on mobile